Time;durP1;ratioP1;P1;durP2;ratioP2;P2;SDS_P1;SDS_P2;PMS_P1;PMS_P2;Temp;Humidity;BMP_temperature;BMP_pressure;BME280_temperature;BME280_humidity;BME280_pressure;Samples;Min_cycle;Max_cycle;Signal;HPM_P1;HPM_P2
2023/02/09 00:01:13;;;;;;;35.85;12.70;;;;;;;;;;4993981;28;20072;-69
2023/02/09 00:03:39;;;;;;;33.10;12.93;;;;;;;;;;4994029;28;20487;-69
2023/02/09 00:06:05;;;;;;;39.90;14.07;;;;;;;;;;4984680;28;20220;-68
2023/02/09 00:08:31;;;;;;;29.23;10.55;;;;;;;;;;4989699;28;20019;-69
2023/02/09 00:10:56;;;;;;;24.95;8.60;;;;;;;;;;4987353;28;22035;-68
2023/02/09 00:13:22;;;;;;;45.95;14.85;;;;;;;;;;4985655;28;20089;-69
2023/02/09 00:15:57;;;;;;;48.50;14.45;;;;;;;;;;4990402;28;20022;-69
2023/02/09 00:18:23;;;;;;;44.13;15.02;;;;;;;;;;4990267;28;20029;-68
2023/02/09 00:20:56;;;;;;;35.55;12.23;;;;;;;;;;4992129;28;20034;-68
2023/02/09 00:23:21;;;;;;;36.92;11.85;;;;;;;;;;4996728;28;20030;-68
2023/02/09 00:25:46;;;;;;;26.85;10.40;;;;;;;;;;4995070;28;20389;-68
2023/02/09 00:28:11;;;;;;;27.92;10.07;;;;;;;;;;4994583;28;20040;-69
2023/02/09 00:30:36;;;;;;;25.38;9.35;;;;;;;;;;4996901;28;20101;-68
2023/02/09 00:33:02;;;;;;;22.38;9.30;;;;;;;;;;4987938;28;20037;-68
2023/02/09 00:35:27;;;;;;;24.88;9.90;;;;;;;;;;4985430;28;20482;-68
2023/02/09 00:37:52;;;;;;;20.05;8.45;;;;;;;;;;4994012;28;20359;-68
2023/02/09 00:40:17;;;;;;;21.90;8.70;;;;;;;;;;4997100;28;20403;-68
2023/02/09 00:42:42;;;;;;;20.63;8.02;;;;;;;;;;4994321;28;20021;-68
2023/02/09 00:45:08;;;;;;;22.63;7.80;;;;;;;;;;4989407;28;20026;-69
2023/02/09 00:47:33;;;;;;;21.38;7.82;;;;;;;;;;4993436;28;20382;-68
2023/02/09 00:49:58;;;;;;;19.30;7.03;;;;;;;;;;4990681;28;20111;-68
2023/02/09 00:52:24;;;;;;;18.55;7.07;;;;;;;;;;4987122;28;20534;-68
2023/02/09 00:54:49;;;;;;;18.33;7.13;;;;;;;;;;4991442;28;20034;-69
2023/02/09 00:57:14;;;;;;;21.98;7.57;;;;;;;;;;4991905;28;20022;-69
2023/02/09 00:59:41;;;;;;;18.63;8.30;;;;;;;;;;4992231;28;20014;-69
2023/02/09 01:02:06;;;;;;;22.52;7.50;;;;;;;;;;4994875;28;20015;-69
2023/02/09 01:04:32;;;;;;;17.88;7.28;;;;;;;;;;4982040;28;20117;-69
2023/02/09 01:06:57;;;;;;;22.75;8.00;;;;;;;;;;4990057;28;20109;-69
2023/02/09 01:09:22;;;;;;;18.00;7.47;;;;;;;;;;4992362;28;20100;-69
2023/02/09 01:11:48;;;;;;;19.20;7.45;;;;;;;;;;4985464;28;20559;-69
2023/02/09 01:14:13;;;;;;;20.63;7.65;;;;;;;;;;4994607;28;20096;-68
2023/02/09 01:16:38;;;;;;;17.67;7.15;;;;;;;;;;4984859;28;20026;-68
2023/02/09 01:19:03;;;;;;;18.25;7.63;;;;;;;;;;4987977;28;20026;-68
2023/02/09 01:21:29;;;;;;;20.98;8.18;;;;;;;;;;4990523;28;20057;-69
2023/02/09 01:23:54;;;;;;;19.50;7.55;;;;;;;;;;4993374;28;20518;-68
2023/02/09 01:26:19;;;;;;;21.23;6.80;;;;;;;;;;4995269;28;20022;-68
2023/02/09 01:28:54;;;;;;;21.75;8.20;;;;;;;;;;4990574;28;21353;-68
2023/02/09 01:31:22;;;;;;;16.58;5.40;;;;;;;;;;4992144;28;20483;-68
2023/02/09 01:33:47;;;;;;;14.88;6.47;;;;;;;;;;4995362;28;20041;-67
2023/02/09 01:36:12;;;;;;;19.27;7.88;;;;;;;;;;4993304;28;20018;-68
2023/02/09 01:38:38;;;;;;;23.33;7.43;;;;;;;;;;4990527;28;20034;-68
2023/02/09 01:41:03;;;;;;;21.30;8.38;;;;;;;;;;4988026;28;20506;-68
2023/02/09 01:43:28;;;;;;;12.15;5.75;;;;;;;;;;4992016;28;20109;-68
2023/02/09 01:45:54;;;;;;;29.80;8.25;;;;;;;;;;4984720;28;20022;-68
2023/02/09 01:48:20;;;;;;;26.80;9.77;;;;;;;;;;4989633;28;20443;-68
2023/02/09 01:50:48;;;;;;;21.10;7.47;;;;;;;;;;4989490;28;20104;-68
2023/02/09 01:53:13;;;;;;;17.98;7.13;;;;;;;;;;4990751;28;20022;-68
2023/02/09 01:55:41;;;;;;;9.65;4.10;;;;;;;;;;4991227;28;20049;-68
2023/02/09 01:58:08;;;;;;;24.83;8.35;;;;;;;;;;4983217;28;20463;-68
2023/02/09 02:00:33;;;;;;;12.95;4.95;;;;;;;;;;4983052;28;20027;-68
2023/02/09 02:03:02;;;;;;;12.48;4.32;;;;;;;;;;5027786;23;20069;-66
2023/02/09 02:05:27;;;;;;;22.40;8.00;;;;;;;;;;4988932;28;20030;-67
2023/02/09 02:07:56;;;;;;;15.13;6.70;;;;;;;;;;4986062;28;20026;-67
2023/02/09 02:10:22;;;;;;;23.92;9.02;;;;;;;;;;4981705;28;20038;-67
2023/02/09 02:12:47;;;;;;;12.27;4.60;;;;;;;;;;4981988;28;20026;-67
2023/02/09 02:15:12;;;;;;;14.80;5.07;;;;;;;;;;4985089;28;20054;-67
2023/02/09 02:17:56;;;;;;;11.25;5.05;;;;;;;;;;4989730;28;20023;-67
2023/02/09 02:20:43;;;;;;;10.43;5.00;;;;;;;;;;4983855;28;20027;-67
2023/02/09 02:23:27;;;;;;;13.98;6.25;;;;;;;;;;4988277;28;20072;-67
2023/02/09 02:25:58;;;;;;;26.05;8.25;;;;;;;;;;4990223;28;20034;-67
2023/02/09 02:28:32;;;;;;;19.77;7.20;;;;;;;;;;4990954;28;20117;-67
2023/02/09 02:31:16;;;;;;;10.93;5.20;;;;;;;;;;4987850;28;20032;-67
2023/02/09 02:33:51;;;;;;;12.88;5.45;;;;;;;;;;4986923;28;20035;-67
2023/02/09 02:36:25;;;;;;;19.40;6.80;;;;;;;;;;4985546;28;20375;-67
2023/02/09 02:38:53;;;;;;;19.70;7.65;;;;;;;;;;4987887;28;20680;-67
2023/02/09 02:42:46;;;;;;;20.98;7.45;;;;;;;;;;4992564;28;20057;-67
2023/02/09 02:44:18;;;;;;;17.08;6.60;;;;;;;;;;4988006;28;20037;-67
2023/02/09 02:46:45;;;;;;;23.02;6.70;;;;;;;;;;4987305;28;20031;-67
2023/02/09 02:49:32;;;;;;;19.20;7.95;;;;;;;;;;4983829;28;20467;-67
2023/02/09 02:51:59;;;;;;;20.17;6.93;;;;;;;;;;4986416;28;20026;-67
2023/02/09 02:54:27;;;;;;;25.92;9.43;;;;;;;;;;4989572;28;20484;-67
2023/02/09 02:56:55;;;;;;;24.05;8.57;;;;;;;;;;4988016;28;20023;-67
2023/02/09 02:59:23;;;;;;;24.98;9.57;;;;;;;;;;4986821;28;20019;-67
2023/02/09 03:01:53;;;;;;;17.20;7.72;;;;;;;;;;4991620;28;20026;-67
2023/02/09 03:04:19;;;;;;;18.05;7.72;;;;;;;;;;4987257;28;20495;-67
2023/02/09 03:06:44;;;;;;;23.92;8.77;;;;;;;;;;4973414;28;20046;-67
2023/02/09 03:09:09;;;;;;;15.93;4.88;;;;;;;;;;4988542;28;20088;-67
2023/02/09 03:11:43;;;;;;;17.90;7.47;;;;;;;;;;4987859;28;20027;-67
2023/02/09 03:14:11;;;;;;;29.83;9.65;;;;;;;;;;4987336;28;20061;-67
2023/02/09 03:16:37;;;;;;;37.72;10.48;;;;;;;;;;4988726;28;20031;-67
2023/02/09 03:19:05;;;;;;;24.10;9.82;;;;;;;;;;4984940;28;20029;-67
2023/02/09 03:21:35;;;;;;;25.42;9.25;;;;;;;;;;4983389;28;20034;-67
2023/02/09 03:24:06;;;;;;;14.82;6.63;;;;;;;;;;4991292;28;20414;-67
2023/02/09 03:26:38;;;;;;;25.70;9.75;;;;;;;;;;4970539;28;20494;-67
2023/02/09 03:29:04;;;;;;;26.48;9.00;;;;;;;;;;4986261;28;20038;-67
2023/02/09 03:31:30;;;;;;;24.50;8.52;;;;;;;;;;4979878;28;20030;-67
2023/02/09 03:33:56;;;;;;;22.50;9.40;;;;;;;;;;4980609;28;20191;-67
2023/02/09 03:36:21;;;;;;;25.77;8.57;;;;;;;;;;4980691;28;20028;-67
2023/02/09 03:38:46;;;;;;;32.28;10.75;;;;;;;;;;4963357;28;20023;-67
2023/02/09 03:41:11;;;;;;;25.45;9.63;;;;;;;;;;4980598;28;20713;-67
2023/02/09 03:46:21;;;;;;;21.00;8.52;;;;;;;;;;4979611;28;20118;-66
2023/02/09 03:48:46;;;;;;;21.80;8.38;;;;;;;;;;4979567;28;20046;-67
2023/02/09 03:51:12;;;;;;;25.52;9.60;;;;;;;;;;4982187;28;20422;-67
2023/02/09 03:53:37;;;;;;;25.25;9.82;;;;;;;;;;4986494;28;20114;-67
2023/02/09 03:56:03;;;;;;;24.70;9.43;;;;;;;;;;4984284;28;20500;-67
2023/02/09 03:58:28;;;;;;;18.77;7.88;;;;;;;;;;4986336;28;20033;-66
2023/02/09 04:00:53;;;;;;;27.25;10.23;;;;;;;;;;4987141;28;20385;-67
2023/02/09 04:03:18;;;;;;;26.43;9.17;;;;;;;;;;4988081;28;20043;-67
2023/02/09 04:05:43;;;;;;;29.98;9.80;;;;;;;;;;4988669;28;20300;-67
2023/02/09 04:08:09;;;;;;;24.65;9.27;;;;;;;;;;4986921;28;20041;-66
2023/02/09 04:10:34;;;;;;;25.30;9.30;;;;;;;;;;4982952;28;20058;-66
2023/02/09 04:12:59;;;;;;;28.42;9.77;;;;;;;;;;4984608;28;20498;-67
2023/02/09 04:15:24;;;;;;;26.03;10.80;;;;;;;;;;4982808;28;20080;-66
2023/02/09 04:17:49;;;;;;;26.83;9.63;;;;;;;;;;4985254;28;20273;-66
2023/02/09 04:20:15;;;;;;;24.57;9.70;;;;;;;;;;4980555;28;20027;-66
2023/02/09 04:22:40;;;;;;;24.45;9.88;;;;;;;;;;4991908;28;20784;-67
2023/02/09 04:25:05;;;;;;;25.17;8.95;;;;;;;;;;4990175;28;20864;-67
2023/02/09 04:27:30;;;;;;;26.50;9.32;;;;;;;;;;4992422;28;20133;-67
2023/02/09 04:29:55;;;;;;;16.05;4.80;;;;;;;;;;4985803;28;20526;-67
2023/02/09 04:32:21;;;;;;;27.73;9.40;;;;;;;;;;4993545;28;20088;-66
2023/02/09 04:34:46;;;;;;;32.60;10.27;;;;;;;;;;4988547;28;20495;-67
2023/02/09 04:37:11;;;;;;;24.27;9.97;;;;;;;;;;4992015;28;20072;-67
2023/02/09 04:39:36;;;;;;;29.35;9.57;;;;;;;;;;4990075;28;20820;-67
2023/02/09 04:42:01;;;;;;;30.75;7.88;;;;;;;;;;4989338;28;20032;-67
2023/02/09 04:44:26;;;;;;;25.45;9.10;;;;;;;;;;4988241;28;20030;-67
2023/02/09 04:46:52;;;;;;;24.15;9.75;;;;;;;;;;4989644;28;20541;-67
2023/02/09 04:49:17;;;;;;;18.08;6.72;;;;;;;;;;4986012;28;20034;-66
2023/02/09 04:51:42;;;;;;;19.58;4.95;;;;;;;;;;4990904;28;20517;-67
2023/02/09 04:54:07;;;;;;;26.27;9.57;;;;;;;;;;4988273;28;20034;-66
2023/02/09 04:56:32;;;;;;;27.53;8.73;;;;;;;;;;4991761;28;20026;-67
2023/02/09 05:01:41;;;;;;;30.88;11.45;;;;;;;;;;4985619;28;20033;-67
2023/02/09 05:04:06;;;;;;;17.83;6.50;;;;;;;;;;4989239;28;20038;-66
2023/02/09 05:06:32;;;;;;;24.15;9.45;;;;;;;;;;4990943;28;20168;-66
2023/02/09 05:08:57;;;;;;;22.55;7.70;;;;;;;;;;4990460;28;20043;-67
2023/02/09 05:11:22;;;;;;;10.23;4.75;;;;;;;;;;4989466;28;20080;-67
2023/02/09 05:13:47;;;;;;;16.45;6.75;;;;;;;;;;4977216;28;20026;-67
2023/02/09 05:16:14;;;;;;;30.20;10.65;;;;;;;;;;4987985;28;20029;-67
2023/02/09 05:18:39;;;;;;;24.08;8.23;;;;;;;;;;4986804;28;20026;-66
2023/02/09 05:21:04;;;;;;;18.90;6.28;;;;;;;;;;4991186;28;20363;-67
2023/02/09 05:23:30;;;;;;;18.42;7.70;;;;;;;;;;4987943;28;20068;-67
2023/02/09 05:25:55;;;;;;;23.98;8.82;;;;;;;;;;4991778;28;20145;-67
2023/02/09 05:28:20;;;;;;;18.98;8.02;;;;;;;;;;4989450;28;20441;-67
2023/02/09 05:30:46;;;;;;;29.15;11.07;;;;;;;;;;4989759;28;20037;-67
2023/02/09 05:33:11;;;;;;;22.33;7.63;;;;;;;;;;4992642;28;20050;-67
2023/02/09 05:35:36;;;;;;;28.52;7.57;;;;;;;;;;4972068;28;20435;-67
2023/02/09 05:38:02;;;;;;;24.25;9.50;;;;;;;;;;4990182;28;20108;-67
2023/02/09 05:40:27;;;;;;;25.98;8.48;;;;;;;;;;4991570;28;20029;-67
2023/02/09 05:42:52;;;;;;;31.88;11.90;;;;;;;;;;4993576;28;20053;-67
2023/02/09 05:45:17;;;;;;;28.98;9.07;;;;;;;;;;4988485;28;20587;-67
2023/02/09 05:47:42;;;;;;;32.15;11.07;;;;;;;;;;4992631;28;20026;-67
2023/02/09 05:50:08;;;;;;;28.83;11.02;;;;;;;;;;4989106;28;20037;-67
2023/02/09 05:52:33;;;;;;;22.85;7.85;;;;;;;;;;4988087;28;20510;-67
2023/02/09 05:54:58;;;;;;;29.25;11.07;;;;;;;;;;4987339;28;20034;-67
2023/02/09 05:57:23;;;;;;;30.00;10.52;;;;;;;;;;4985991;28;20026;-67
2023/02/09 05:59:48;;;;;;;30.75;11.85;;;;;;;;;;4988084;28;20076;-67
2023/02/09 06:02:14;;;;;;;31.63;12.60;;;;;;;;;;4985932;28;20423;-67
2023/02/09 06:04:39;;;;;;;35.70;11.77;;;;;;;;;;4969577;28;20018;-67
2023/02/09 06:07:04;;;;;;;32.65;11.93;;;;;;;;;;4990316;28;20025;-67
2023/02/09 06:09:29;;;;;;;30.80;10.98;;;;;;;;;;4988840;28;20037;-67
2023/02/09 06:11:55;;;;;;;28.73;11.82;;;;;;;;;;4987453;28;20033;-67
2023/02/09 06:14:20;;;;;;;35.20;13.45;;;;;;;;;;4988321;28;20457;-67
2023/02/09 06:16:45;;;;;;;28.65;11.70;;;;;;;;;;4990263;28;20033;-67
2023/02/09 06:19:18;;;;;;;29.02;10.75;;;;;;;;;;4990431;28;20019;-67
2023/02/09 06:21:43;;;;;;;30.98;12.05;;;;;;;;;;4988733;28;20621;-67
2023/02/09 06:24:09;;;;;;;32.95;12.18;;;;;;;;;;4987443;28;20042;-67
2023/02/09 06:26:34;;;;;;;24.02;10.48;;;;;;;;;;4987560;28;20045;-68
2023/02/09 06:28:59;;;;;;;40.53;13.60;;;;;;;;;;4989478;28;20033;-67
2023/02/09 06:31:24;;;;;;;36.85;13.23;;;;;;;;;;4988511;28;20693;-67
2023/02/09 06:33:49;;;;;;;31.05;8.73;;;;;;;;;;4975643;28;20019;-67
2023/02/09 06:36:15;;;;;;;29.88;12.98;;;;;;;;;;4981777;28;20549;-67
2023/02/09 06:38:40;;;;;;;24.20;10.73;;;;;;;;;;4987148;28;20057;-67
2023/02/09 06:41:05;;;;;;;35.83;13.13;;;;;;;;;;4986538;28;20030;-67
2023/02/09 06:43:30;;;;;;;34.75;12.23;;;;;;;;;;4987593;28;20402;-67
2023/02/09 06:45:55;;;;;;;14.45;5.65;;;;;;;;;;4987099;28;20026;-67
2023/02/09 06:48:21;;;;;;;8.48;3.33;;;;;;;;;;4987034;28;20475;-67
2023/02/09 06:50:46;;;;;;;20.60;7.47;;;;;;;;;;4985426;28;20082;-67
2023/02/09 06:53:11;;;;;;;49.78;12.57;;;;;;;;;;4986698;28;20045;-68
2023/02/09 06:55:36;;;;;;;24.10;6.63;;;;;;;;;;4985229;28;20029;-67
2023/02/09 06:58:02;;;;;;;27.92;10.70;;;;;;;;;;4988303;28;20467;-67
2023/02/09 07:00:27;;;;;;;29.90;8.65;;;;;;;;;;4986324;28;20018;-67
2023/02/09 07:02:52;;;;;;;31.70;12.02;;;;;;;;;;4986933;28;20034;-67
2023/02/09 07:05:18;;;;;;;43.08;14.52;;;;;;;;;;4988126;28;20049;-67
2023/02/09 07:07:44;;;;;;;28.90;10.40;;;;;;;;;;4988296;28;20097;-67
2023/02/09 07:10:10;;;;;;;42.38;14.15;;;;;;;;;;4986606;28;20096;-67
2023/02/09 07:12:35;;;;;;;32.33;11.95;;;;;;;;;;4989685;28;20029;-67
2023/02/09 07:15:00;;;;;;;35.95;13.25;;;;;;;;;;4982279;28;20026;-67
2023/02/09 07:17:29;;;;;;;40.17;15.13;;;;;;;;;;4988679;28;20031;-68
2023/02/09 07:19:54;;;;;;;40.13;13.48;;;;;;;;;;4980457;28;20257;-67
2023/02/09 07:22:19;;;;;;;42.17;13.38;;;;;;;;;;4981377;28;20053;-67
2023/02/09 07:24:45;;;;;;;35.97;13.85;;;;;;;;;;4984856;28;20034;-67
2023/02/09 07:27:10;;;;;;;35.25;12.57;;;;;;;;;;4980588;28;20038;-67
2023/02/09 07:29:35;;;;;;;37.92;14.32;;;;;;;;;;4981529;28;20022;-67
2023/02/09 07:32:00;;;;;;;37.50;14.37;;;;;;;;;;4981408;28;20390;-67
2023/02/09 07:34:25;;;;;;;39.17;13.10;;;;;;;;;;4981330;28;20285;-67
2023/02/09 07:36:51;;;;;;;39.33;13.93;;;;;;;;;;4987610;28;20026;-67
2023/02/09 07:39:16;;;;;;;36.42;13.88;;;;;;;;;;4982147;28;20022;-67
2023/02/09 07:41:41;;;;;;;36.72;12.23;;;;;;;;;;4981383;28;20077;-68
2023/02/09 07:44:08;;;;;;;39.03;14.18;;;;;;;;;;4980139;28;20022;-68
2023/02/09 07:46:33;;;;;;;33.33;14.20;;;;;;;;;;4981715;28;20045;-68
2023/02/09 07:48:59;;;;;;;34.55;13.75;;;;;;;;;;4986388;28;20125;-68
2023/02/09 07:51:25;;;;;;;34.25;14.45;;;;;;;;;;4987742;28;20100;-68
2023/02/09 07:53:53;;;;;;;39.83;14.23;;;;;;;;;;4992214;28;20471;-68
2023/02/09 07:56:19;;;;;;;34.28;12.50;;;;;;;;;;4985870;28;20506;-68
2023/02/09 07:58:45;;;;;;;28.52;11.30;;;;;;;;;;4987126;28;20475;-68
2023/02/09 08:01:11;;;;;;;33.47;14.70;;;;;;;;;;4989275;28;20034;-68
2023/02/09 08:03:37;;;;;;;33.40;13.70;;;;;;;;;;5002812;23;20446;-68
2023/02/09 08:06:18;;;;;;;35.55;14.18;;;;;;;;;;4971625;28;21769;-68
2023/02/09 08:08:47;;;;;;;20.65;8.15;;;;;;;;;;4971849;28;20023;-68
2023/02/09 08:11:13;;;;;;;22.08;7.40;;;;;;;;;;4971485;28;20426;-68
2023/02/09 08:13:40;;;;;;;31.05;11.25;;;;;;;;;;4970304;28;20594;-68
2023/02/09 08:16:08;;;;;;;27.00;11.45;;;;;;;;;;4966418;28;20101;-69
2023/02/09 08:18:35;;;;;;;26.95;10.88;;;;;;;;;;4969881;28;20018;-68
2023/02/09 08:21:02;;;;;;;32.03;13.35;;;;;;;;;;4969480;28;20060;-68
2023/02/09 08:23:30;;;;;;;28.98;11.95;;;;;;;;;;4965796;28;20050;-68
2023/02/09 08:25:58;;;;;;;25.98;10.07;;;;;;;;;;4971005;28;20023;-68
2023/02/09 08:28:23;;;;;;;30.42;12.93;;;;;;;;;;4971780;28;20097;-68
2023/02/09 08:30:48;;;;;;;23.25;10.02;;;;;;;;;;4973432;28;20475;-68
2023/02/09 08:33:14;;;;;;;34.63;12.85;;;;;;;;;;4972362;28;20026;-67
2023/02/09 08:35:39;;;;;;;24.38;9.25;;;;;;;;;;4973091;28;20022;-67
2023/02/09 08:38:04;;;;;;;21.85;8.60;;;;;;;;;;4971369;28;20077;-68
2023/02/09 08:40:30;;;;;;;20.23;7.97;;;;;;;;;;4973432;28;20037;-67
2023/02/09 08:42:56;;;;;;;34.70;14.23;;;;;;;;;;4973249;28;20023;-67
2023/02/09 08:45:21;;;;;;;28.60;11.05;;;;;;;;;;4972817;28;20030;-68
2023/02/09 08:47:46;;;;;;;24.45;8.60;;;;;;;;;;4973476;28;20018;-68
2023/02/09 08:50:11;;;;;;;27.67;11.30;;;;;;;;;;4971755;28;20497;-68
2023/02/09 08:52:36;;;;;;;18.50;9.43;;;;;;;;;;4970808;28;20043;-68
2023/02/09 08:55:02;;;;;;;25.40;9.68;;;;;;;;;;4972044;28;20266;-68
2023/02/09 08:57:28;;;;;;;23.05;9.25;;;;;;;;;;4973127;28;20443;-68
2023/02/09 08:59:53;;;;;;;28.48;12.55;;;;;;;;;;4973000;28;20105;-68
2023/02/09 09:02:18;;;;;;;16.30;7.47;;;;;;;;;;4972016;28;20031;-68
2023/02/09 09:04:43;;;;;;;23.53;8.47;;;;;;;;;;4972817;28;20817;-68
2023/02/09 09:07:08;;;;;;;19.13;7.85;;;;;;;;;;4971075;28;20297;-68
2023/02/09 09:09:34;;;;;;;33.97;13.63;;;;;;;;;;4972966;28;20031;-68
2023/02/09 09:11:59;;;;;;;27.40;13.05;;;;;;;;;;4972893;28;20073;-68
2023/02/09 09:14:25;;;;;;;26.70;10.65;;;;;;;;;;4972883;28;20042;-68
2023/02/09 09:16:50;;;;;;;17.30;5.72;;;;;;;;;;4972555;28;20038;-68
2023/02/09 09:19:15;;;;;;;19.42;9.00;;;;;;;;;;4971705;28;20015;-68
2023/02/09 09:21:41;;;;;;;23.30;9.90;;;;;;;;;;4972317;28;20023;-68
2023/02/09 09:24:06;;;;;;;32.40;13.23;;;;;;;;;;4971249;28;20016;-68
2023/02/09 09:26:32;;;;;;;30.38;13.50;;;;;;;;;;4972534;28;20505;-68
2023/02/09 09:28:57;;;;;;;27.85;11.00;;;;;;;;;;4972322;28;20019;-68
2023/02/09 09:31:22;;;;;;;18.75;7.55;;;;;;;;;;4972271;28;20097;-68
2023/02/09 09:33:48;;;;;;;34.80;14.85;;;;;;;;;;4971132;28;20492;-68
2023/02/09 09:36:13;;;;;;;17.67;7.00;;;;;;;;;;4971166;28;20081;-68
2023/02/09 09:38:38;;;;;;;30.42;11.50;;;;;;;;;;4972349;28;20535;-68
2023/02/09 09:41:05;;;;;;;19.77;6.15;;;;;;;;;;4971907;28;20037;-68
2023/02/09 09:43:32;;;;;;;23.08;10.63;;;;;;;;;;4972195;28;20023;-67
2023/02/09 09:45:57;;;;;;;25.08;7.80;;;;;;;;;;4971632;28;20460;-68
2023/02/09 09:48:24;;;;;;;25.17;10.65;;;;;;;;;;4970952;28;20106;-68
2023/02/09 09:50:51;;;;;;;28.80;11.15;;;;;;;;;;4972163;28;20542;-68
2023/02/09 09:53:16;;;;;;;36.58;13.15;;;;;;;;;;4970307;28;20029;-68
2023/02/09 09:55:43;;;;;;;30.50;11.83;;;;;;;;;;4971688;28;20015;-68
2023/02/09 09:58:14;;;;;;;26.10;11.63;;;;;;;;;;4970974;28;20278;-68
2023/02/09 10:00:41;;;;;;;29.30;12.63;;;;;;;;;;4971934;28;20509;-68
2023/02/09 10:03:13;;;;;;;28.92;11.70;;;;;;;;;;4969267;28;20033;-68
2023/02/09 10:05:38;;;;;;;36.38;13.15;;;;;;;;;;4970642;28;20033;-68
2023/02/09 10:08:06;;;;;;;33.60;13.73;;;;;;;;;;4971220;28;20379;-68
2023/02/09 10:10:50;;;;;;;26.48;12.50;;;;;;;;;;4971562;28;20030;-68
2023/02/09 10:13:21;;;;;;;35.67;14.05;;;;;;;;;;4953954;28;20041;-68
2023/02/09 10:15:47;;;;;;;26.48;12.77;;;;;;;;;;4970905;28;20023;-68
2023/02/09 10:18:13;;;;;;;35.97;11.85;;;;;;;;;;4970239;28;20099;-68
2023/02/09 10:20:41;;;;;;;26.80;10.80;;;;;;;;;;4971151;28;20101;-67
2023/02/09 10:23:33;;;;;;;20.38;7.57;;;;;;;;;;4971296;28;20403;-67
2023/02/09 10:26:02;;;;;;;25.80;10.32;;;;;;;;;;4967462;28;20035;-67
2023/02/09 10:28:29;;;;;;;20.40;7.45;;;;;;;;;;4963972;28;20026;-67
2023/02/09 10:30:56;;;;;;;23.08;8.27;;;;;;;;;;4964393;28;20034;-67
2023/02/09 10:33:21;;;;;;;26.73;7.30;;;;;;;;;;4968855;28;20027;-67
2023/02/09 10:35:50;;;;;;;32.42;12.63;;;;;;;;;;4966977;28;20383;-67
2023/02/09 10:38:16;;;;;;;17.80;7.32;;;;;;;;;;4969127;28;20428;-67
2023/02/09 10:40:42;;;;;;;25.17;10.63;;;;;;;;;;4969076;28;20011;-68
2023/02/09 10:43:21;;;;;;;22.25;9.35;;;;;;;;;;4966873;28;20435;-67
2023/02/09 10:45:51;;;;;;;27.25;12.15;;;;;;;;;;4966256;28;20061;-67
2023/02/09 10:48:17;;;;;;;33.50;14.38;;;;;;;;;;4967203;28;20085;-67
2023/02/09 10:50:47;;;;;;;32.03;13.88;;;;;;;;;;4970796;28;20034;-68
2023/02/09 10:53:17;;;;;;;24.70;10.15;;;;;;;;;;4969538;28;20023;-68
2023/02/09 10:55:44;;;;;;;29.20;11.60;;;;;;;;;;4970799;28;20081;-67
2023/02/09 10:58:09;;;;;;;24.30;10.10;;;;;;;;;;4969256;28;20025;-67
2023/02/09 11:00:40;;;;;;;14.18;6.28;;;;;;;;;;4969274;28;20019;-68
2023/02/09 11:03:14;;;;;;;21.15;10.23;;;;;;;;;;4965931;28;20027;-67
2023/02/09 11:05:39;;;;;;;27.20;8.63;;;;;;;;;;4968389;28;20320;-67
2023/02/09 11:08:20;;;;;;;18.53;8.17;;;;;;;;;;4968617;28;20367;-67
2023/02/09 11:11:04;;;;;;;29.77;9.93;;;;;;;;;;4968685;28;20274;-68
2023/02/09 11:13:31;;;;;;;33.05;10.88;;;;;;;;;;4964895;28;20495;-67
2023/02/09 11:16:11;;;;;;;27.17;10.95;;;;;;;;;;4970373;28;20019;-67
2023/02/09 11:18:37;;;;;;;18.80;7.45;;;;;;;;;;4966080;28;20026;-67
2023/02/09 11:21:10;;;;;;;29.65;12.15;;;;;;;;;;4970153;28;20011;-67
2023/02/09 11:23:46;;;;;;;24.63;9.25;;;;;;;;;;4969679;28;20431;-68
2023/02/09 11:26:29;;;;;;;23.48;8.40;;;;;;;;;;4970280;28;20070;-67
2023/02/09 11:29:13;;;;;;;20.52;7.88;;;;;;;;;;4970704;28;20019;-67
2023/02/09 11:31:39;;;;;;;18.55;6.30;;;;;;;;;;4969247;28;20026;-67
2023/02/09 11:34:29;;;;;;;26.45;11.13;;;;;;;;;;4974354;28;20455;-67
2023/02/09 11:37:03;;;;;;;19.73;7.25;;;;;;;;;;4974545;28;20377;-68
2023/02/09 11:39:51;;;;;;;23.27;8.05;;;;;;;;;;4970095;28;20158;-67
2023/02/09 11:45:03;;;;;;;16.55;6.53;;;;;;;;;;4973967;28;20038;-67
2023/02/09 11:47:49;;;;;;;20.60;9.10;;;;;;;;;;4973071;28;20030;-67
2023/02/09 11:50:18;;;;;;;16.42;5.95;;;;;;;;;;4967937;28;20030;-67
2023/02/09 11:52:47;;;;;;;20.10;8.60;;;;;;;;;;4974060;28;20030;-66
2023/02/09 11:55:39;;;;;;;22.25;9.57;;;;;;;;;;4973486;28;20011;-69
2023/02/09 11:58:10;;;;;;;16.45;7.72;;;;;;;;;;4970769;28;20375;-67
2023/02/09 12:00:42;;;;;;;24.30;9.50;;;;;;;;;;4971684;28;20414;-67
2023/02/09 12:03:09;;;;;;;27.33;12.20;;;;;;;;;;4971164;28;20029;-67
2023/02/09 12:05:36;;;;;;;30.92;13.98;;;;;;;;;;4969946;28;20206;-67
2023/02/09 12:08:21;;;;;;;19.95;7.47;;;;;;;;;;4973756;28;20102;-67
2023/02/09 12:10:49;;;;;;;18.95;7.82;;;;;;;;;;4971142;28;20527;-67
2023/02/09 12:13:32;;;;;;;20.17;5.70;;;;;;;;;;4973273;28;20038;-67
2023/02/09 12:16:03;;;;;;;22.55;10.75;;;;;;;;;;4972214;28;20023;-67
2023/02/09 12:18:31;;;;;;;23.95;10.18;;;;;;;;;;4973752;28;20034;-66
2023/02/09 12:21:01;;;;;;;17.58;7.32;;;;;;;;;;4973585;28;20015;-67
2023/02/09 12:23:29;;;;;;;11.55;5.32;;;;;;;;;;4973481;28;20874;-67
2023/02/09 12:25:54;;;;;;;22.17;8.77;;;;;;;;;;4973360;28;20050;-67
2023/02/09 12:28:22;;;;;;;14.30;6.40;;;;;;;;;;4971269;28;20050;-66
2023/02/09 12:30:47;;;;;;;16.20;7.30;;;;;;;;;;4972839;28;20102;-66
2023/02/09 12:33:16;;;;;;;22.83;9.57;;;;;;;;;;4972714;28;20094;-66
2023/02/09 12:35:42;;;;;;;24.20;11.48;;;;;;;;;;4973245;28;20349;-66
2023/02/09 12:38:13;;;;;;;22.63;9.98;;;;;;;;;;4972900;28;20102;-67
2023/02/09 12:40:38;;;;;;;23.05;8.95;;;;;;;;;;4973579;28;20074;-67
2023/02/09 12:43:12;;;;;;;11.98;5.97;;;;;;;;;;4971504;28;20018;-67
2023/02/09 12:45:39;;;;;;;25.58;10.57;;;;;;;;;;4972716;28;20023;-67
2023/02/09 12:48:08;;;;;;;24.10;11.20;;;;;;;;;;4970824;28;20023;-67
2023/02/09 12:50:43;;;;;;;24.52;10.32;;;;;;;;;;4973280;28;20375;-67
2023/02/09 12:53:20;;;;;;;16.48;8.07;;;;;;;;;;4971507;28;20027;-67
2023/02/09 12:56:01;;;;;;;21.70;9.13;;;;;;;;;;4973078;28;20439;-67
2023/02/09 12:58:38;;;;;;;21.80;5.78;;;;;;;;;;4973061;28;20023;-67
2023/02/09 13:01:04;;;;;;;15.82;7.05;;;;;;;;;;4971570;28;20387;-67
2023/02/09 13:03:31;;;;;;;14.10;4.82;;;;;;;;;;4973096;28;20046;-67
2023/02/09 13:05:58;;;;;;;24.65;9.02;;;;;;;;;;4972256;28;20019;-66
2023/02/09 13:08:28;;;;;;;25.00;11.65;;;;;;;;;;4971077;28;20454;-67
2023/02/09 13:11:01;;;;;;;27.42;11.88;;;;;;;;;;4972664;28;20429;-67
2023/02/09 13:13:37;;;;;;;31.45;12.40;;;;;;;;;;4972292;28;20480;-67
2023/02/09 13:16:02;;;;;;;27.55;12.57;;;;;;;;;;4967640;28;20029;-67
2023/02/09 13:18:32;;;;;;;27.58;12.90;;;;;;;;;;4972791;28;20468;-67
2023/02/09 13:20:57;;;;;;;25.40;9.95;;;;;;;;;;4970679;28;20110;-67
2023/02/09 13:23:27;;;;;;;31.02;11.35;;;;;;;;;;4971710;28;20562;-67
2023/02/09 13:25:57;;;;;;;25.58;11.55;;;;;;;;;;4972107;28;20354;-67
2023/02/09 13:28:22;;;;;;;31.42;14.10;;;;;;;;;;4972162;28;20336;-67
2023/02/09 13:30:48;;;;;;;27.60;11.80;;;;;;;;;;4972424;28;20045;-67
2023/02/09 13:33:31;;;;;;;31.65;11.60;;;;;;;;;;4972129;28;20078;-67
2023/02/09 13:36:02;;;;;;;16.80;5.32;;;;;;;;;;4970613;28;20019;-67
2023/02/09 13:38:32;;;;;;;31.50;12.60;;;;;;;;;;4971991;28;20022;-66
2023/02/09 13:40:57;;;;;;;20.25;7.45;;;;;;;;;;4969579;28;21630;-67
2023/02/09 13:43:27;;;;;;;24.65;11.43;;;;;;;;;;4971091;28;20037;-67
2023/02/09 13:45:53;;;;;;;30.70;12.82;;;;;;;;;;4971200;28;20113;-66
2023/02/09 13:48:20;;;;;;;23.73;9.90;;;;;;;;;;4971807;28;20019;-67
2023/02/09 13:50:46;;;;;;;33.33;12.88;;;;;;;;;;4967279;28;20110;-66
2023/02/09 13:53:15;;;;;;;29.60;11.38;;;;;;;;;;4970346;28;20090;-67
2023/02/09 13:55:43;;;;;;;9.50;4.40;;;;;;;;;;4970717;28;20018;-68
2023/02/09 13:58:13;;;;;;;27.35;10.32;;;;;;;;;;4970641;28;20015;-66
2023/02/09 14:00:38;;;;;;;19.20;6.80;;;;;;;;;;4972164;28;20444;-67
2023/02/09 14:03:10;;;;;;;31.67;11.60;;;;;;;;;;4967793;28;20054;-67
2023/02/09 14:05:47;;;;;;;29.20;12.32;;;;;;;;;;4969473;28;20026;-67
2023/02/09 14:08:14;;;;;;;27.70;10.07;;;;;;;;;;4969358;28;20031;-67
2023/02/09 14:10:40;;;;;;;10.68;4.18;;;;;;;;;;4971382;28;20073;-67
2023/02/09 14:13:10;;;;;;;35.30;12.50;;;;;;;;;;4969077;28;20019;-67
2023/02/09 14:18:25;;;;;;;25.38;9.77;;;;;;;;;;4968302;28;20034;-67
2023/02/09 14:21:00;;;;;;;24.30;11.07;;;;;;;;;;4971451;28;20468;-67
2023/02/09 14:23:31;;;;;;;26.20;10.52;;;;;;;;;;4969596;28;20034;-67
2023/02/09 14:26:02;;;;;;;30.38;10.98;;;;;;;;;;4952355;28;20031;-67
2023/02/09 14:28:28;;;;;;;25.92;10.95;;;;;;;;;;4971155;28;20029;-67
2023/02/09 14:30:53;;;;;;;25.87;10.47;;;;;;;;;;4969014;28;20023;-67
2023/02/09 14:33:21;;;;;;;27.60;10.10;;;;;;;;;;4970393;28;20286;-67
2023/02/09 14:35:52;;;;;;;18.48;8.80;;;;;;;;;;4970014;28;20015;-67
2023/02/09 14:38:36;;;;;;;25.27;9.90;;;;;;;;;;4969167;28;20123;-67